createdAt,value
2022-11-30T00:01:45.466Z,97393.72
2022-11-30T00:06:47.085Z,97395.38
2022-11-30T00:11:48.755Z,97397.38
2022-11-30T00:16:50.553Z,97394.78
2022-11-30T00:21:52.263Z,97412.97
2022-11-30T00:26:54.154Z,97407.53
2022-11-30T00:31:55.909Z,97408.16
2022-11-30T00:36:57.575Z,97412.50
2022-11-30T00:41:59.288Z,97418.09
2022-11-30T00:47:01.039Z,97422.22
2022-11-30T00:52:02.893Z,97433.91
2022-11-30T00:57:04.957Z,97433.44
2022-11-30T01:02:06.640Z,97438.19
2022-11-30T01:07:08.470Z,97437.34
2022-11-30T01:12:10.222Z,97445.84
2022-11-30T01:17:12.102Z,97442.31
2022-11-30T01:22:13.769Z,97441.94
2022-11-30T01:27:15.451Z,97450.44
2022-11-30T01:32:17.093Z,97440.50
2022-11-30T01:37:18.818Z,97443.91
2022-11-30T01:42:20.884Z,97446.88
2022-11-30T01:47:27.704Z,97452.75
2022-11-30T01:52:35.561Z,97455.13
2022-11-30T01:57:41.541Z,97458.38
2022-11-30T02:02:55.446Z,97461.31
2022-11-30T02:07:57.558Z,97459.63
2022-11-30T02:13:23.811Z,97459.28
2022-11-30T02:18:38.680Z,97450.44
2022-11-30T02:23:46.454Z,97456.81
2022-11-30T02:29:25.896Z,97453.63
2022-11-30T02:34:31.052Z,97456.72
2022-11-30T02:39:32.732Z,97463.44
2022-11-30T02:44:34.662Z,97455.06
2022-11-30T02:50:04.297Z,97457.31
2022-11-30T02:55:08.836Z,97452.00
2022-11-30T03:00:11.981Z,97443.63
2022-11-30T03:05:13.643Z,97450.09
2022-11-30T03:10:15.469Z,97442.41
2022-11-30T03:15:17.349Z,97451.47
2022-11-30T03:20:19.082Z,97466.38
2022-11-30T03:25:20.841Z,97471.34
2022-11-30T03:30:22.512Z,97475.00
2022-11-30T03:35:24.459Z,97482.13
2022-11-30T03:40:26.150Z,97478.19
2022-11-30T03:45:27.992Z,97478.66
2022-11-30T03:50:29.665Z,97487.72
2022-11-30T03:55:31.592Z,97475.69
2022-11-30T04:00:33.423Z,97479.47
2022-11-30T04:05:35.177Z,97479.25
2022-11-30T04:10:36.875Z,97484.44
2022-11-30T04:15:39.008Z,97476.75
2022-11-30T04:20:41.121Z,97483.09
2022-11-30T04:25:42.880Z,97476.66
2022-11-30T04:30:46.159Z,97472.06
2022-11-30T04:35:56.164Z,97476.00
2022-11-30T04:40:57.824Z,97479.31
2022-11-30T04:45:59.514Z,97487.63
2022-11-30T04:51:06.367Z,97494.00
2022-11-30T04:56:10.057Z,97485.63
2022-11-30T05:01:11.879Z,97488.94
2022-11-30T05:06:13.613Z,97494.22
2022-11-30T05:11:15.289Z,97491.25
2022-11-30T05:16:16.990Z,97492.22
2022-11-30T05:21:18.726Z,97487.63
2022-11-30T05:26:20.604Z,97491.59
2022-11-30T05:31:22.287Z,97488.31
2022-11-30T05:36:23.997Z,97485.22
2022-11-30T05:41:25.893Z,97486.06
2022-11-30T05:46:27.743Z,97494.44
2022-11-30T05:51:29.679Z,97491.25
2022-11-30T05:56:31.375Z,97495.25
2022-11-30T06:01:33.148Z,97501.22
2022-11-30T06:06:34.941Z,97496.25
2022-11-30T06:11:36.629Z,97502.47
2022-11-30T06:16:39.656Z,97508.53
2022-11-30T06:21:41.676Z,97505.75
2022-11-30T06:26:43.582Z,97504.66
2022-11-30T06:31:45.330Z,97502.09
2022-11-30T06:36:47.031Z,97502.91
2022-11-30T06:41:53.077Z,97503.47
2022-11-30T06:46:56.366Z,97516.50
2022-11-30T06:51:58.391Z,97514.69
2022-11-30T06:57:01.210Z,97516.16
2022-11-30T07:02:08.867Z,97510.94
2022-11-30T07:07:12.749Z,97506.06
2022-11-30T07:12:14.562Z,97508.44
2022-11-30T07:17:16.302Z,97514.38
2022-11-30T07:22:18.070Z,97519.94
2022-11-30T07:27:19.774Z,97520.34
2022-11-30T07:32:21.541Z,97527.56
2022-11-30T07:37:23.274Z,97523.91
2022-11-30T07:42:24.992Z,97528.38
2022-11-30T07:47:28.304Z,97533.91
2022-11-30T07:52:30.517Z,97538.38
2022-11-30T07:57:32.182Z,97536.72
2022-11-30T08:02:33.904Z,97544.28
2022-11-30T08:07:35.666Z,97540.75
2022-11-30T08:12:37.630Z,97552.56
2022-11-30T08:17:39.371Z,97560.03
2022-11-30T08:22:41.144Z,97562.75
2022-11-30T08:27:42.982Z,97561.78
2022-11-30T08:32:44.749Z,97550.13
2022-11-30T08:37:46.570Z,97558.50
2022-11-30T08:42:48.238Z,97567.59
2022-11-30T08:47:49.915Z,97565.47
2022-11-30T08:52:54.251Z,97560.03
2022-11-30T08:57:56.013Z,97561.78
2022-11-30T09:02:57.763Z,97563.75
2022-11-30T09:08:00.232Z,97563.16
2022-11-30T09:13:02.120Z,97572.13
2022-11-30T09:18:04.023Z,97594.50
2022-11-30T09:23:05.898Z,97592.03
2022-11-30T09:28:12.180Z,97592.47
2022-11-30T09:33:14.187Z,97586.59
2022-11-30T09:38:15.948Z,97584.81
2022-11-30T09:43:26.749Z,97572.41
2022-11-30T09:48:36.897Z,97576.81
2022-11-30T09:53:43.290Z,97569.84
2022-11-30T09:58:50.240Z,97580.09
2022-11-30T10:03:52.118Z,97575.59
2022-11-30T10:09:22.814Z,97575.13
2022-11-30T10:14:40.131Z,97569.22
2022-11-30T10:19:52.664Z,97570.91
2022-11-30T10:25:16.187Z,97569.47
2022-11-30T10:30:23.434Z,97568.50
2022-11-30T10:35:39.157Z,97573.84
2022-11-30T10:41:06.361Z,97561.09
2022-11-30T10:46:18.059Z,97561.22
2022-11-30T10:51:20.381Z,97562.75
2022-11-30T10:56:22.221Z,97556.56
2022-11-30T11:01:35.863Z,97549.25
2022-11-30T11:06:47.771Z,97554.63
2022-11-30T11:11:54.989Z,97554.97
2022-11-30T11:17:01.464Z,97556.25
2022-11-30T11:22:27.665Z,97552.34
2022-11-30T11:27:33.606Z,97559.28
2022-11-30T11:32:35.982Z,97551.97
2022-11-30T11:37:41.490Z,97552.22
2022-11-30T11:42:48.319Z,97550.09
2022-11-30T11:48:05.522Z,97552.59
2022-11-30T11:53:15.124Z,97542.38
2022-11-30T11:58:22.577Z,97543.41
2022-11-30T12:03:56.681Z,97542.38
2022-11-30T12:09:13.627Z,97539.88
2022-11-30T12:14:17.634Z,97540.56
2022-11-30T12:19:37.541Z,97546.47
2022-11-30T12:25:05.685Z,97549.19
2022-11-30T12:30:23.143Z,97542.06
2022-11-30T12:35:43.474Z,97547.50
2022-11-30T12:41:07.304Z,97539.69
2022-11-30T12:46:20.998Z,97539.69
2022-11-30T12:51:57.383Z,97545.13
2022-11-30T12:57:16.357Z,97545.94
2022-11-30T13:02:36.584Z,97548.41
2022-11-30T13:08:27.846Z,97550.09
2022-11-30T13:13:32.991Z,97548.41
2022-11-30T13:18:37.285Z,97544.06
2022-11-30T13:23:44.842Z,97551.13
2022-11-30T13:28:52.723Z,97552.66
2022-11-30T13:33:54.367Z,97548.06
2022-11-30T13:39:14.133Z,97552.06
2022-11-30T13:44:21.646Z,97552.72
2022-11-30T13:49:33.411Z,97551.91
2022-11-30T13:54:38.606Z,97555.06
2022-11-30T13:59:52.369Z,97556.25
2022-11-30T14:04:54.069Z,97558.38
2022-11-30T14:09:58.361Z,97557.78
2022-11-30T14:15:02.107Z,97552.81
2022-11-30T14:20:15.923Z,97561.41
2022-11-30T14:25:20.708Z,97569.84
2022-11-30T14:30:24.245Z,97569.25
2022-11-30T14:35:30.094Z,97574.69
2022-11-30T14:40:32.523Z,97575.97
2022-11-30T14:45:35.001Z,97574.03
2022-11-30T14:50:42.500Z,97574.56
2022-11-30T14:55:56.856Z,97573.66
2022-11-30T15:00:59.577Z,97571.84
2022-11-30T15:06:04.320Z,97573.47
2022-11-30T15:11:09.274Z,97575.25
2022-11-30T15:16:29.072Z,97571.75
2022-11-30T15:21:32.669Z,97569.81
2022-11-30T15:26:41.725Z,97575.28
2022-11-30T15:31:48.590Z,97575.28
2022-11-30T15:36:54.515Z,97570.16
2022-11-30T15:41:59.478Z,97574.38
2022-11-30T15:47:02.636Z,97576.50
2022-11-30T15:52:09.151Z,97579.44
2022-11-30T15:57:11.425Z,97572.28
2022-11-30T16:02:36.584Z,97587.66
2022-11-30T16:07:48.712Z,97584.78
2022-11-30T16:12:52.435Z,97590.06
2022-11-30T16:17:59.229Z,97595.03
2022-11-30T16:23:05.547Z,97590.88
2022-11-30T16:28:09.820Z,97593.53
2022-11-30T16:33:13.424Z,97587.09
2022-11-30T16:38:15.329Z,97595.94
2022-11-30T16:43:18.518Z,97605.97
2022-11-30T16:48:20.177Z,97600.00
2022-11-30T16:53:23.842Z,97597.91
2022-11-30T16:58:29.094Z,97600.34
2022-11-30T17:03:35.260Z,97604.97
2022-11-30T17:08:37.008Z,97605.38
2022-11-30T17:13:38.801Z,97604.09
2022-11-30T17:18:40.842Z,97602.44
2022-11-30T17:23:44.196Z,97617.81
2022-11-30T17:28:45.950Z,97615.09
2022-11-30T17:33:48.500Z,97618.72
2022-11-30T17:38:50.622Z,97615.84
2022-11-30T17:43:52.298Z,97604.25
2022-11-30T17:48:55.690Z,97611.19
2022-11-30T17:53:57.690Z,97613.50
2022-11-30T17:58:59.514Z,97610.16
2022-11-30T18:04:01.835Z,97618.31
2022-11-30T18:09:03.816Z,97620.34
2022-11-30T18:14:05.657Z,97622.03
2022-11-30T18:19:12.050Z,97622.31
2022-11-30T18:24:13.723Z,97622.13
2022-11-30T18:29:15.432Z,97627.44
2022-11-30T18:34:17.581Z,97623.66
2022-11-30T18:39:19.563Z,97639.47
2022-11-30T18:44:21.260Z,97633.69
2022-11-30T18:49:23.636Z,97636.28
2022-11-30T18:54:25.792Z,97637.59
2022-11-30T18:59:27.566Z,97638.66
2022-11-30T19:04:29.212Z,97643.31
2022-11-30T19:09:31.038Z,97640.00
2022-11-30T19:14:32.688Z,97653.09
2022-11-30T19:19:34.379Z,97659.41
2022-11-30T19:24:36.381Z,97658.34
2022-11-30T19:29:38.158Z,97656.47
2022-11-30T19:34:39.845Z,97652.38
2022-11-30T19:39:41.602Z,97648.50
2022-11-30T19:44:43.450Z,97649.78
2022-11-30T19:49:45.703Z,97649.41
2022-11-30T19:54:48.239Z,97657.91
2022-11-30T19:59:50.163Z,97645.78
2022-11-30T20:04:52.028Z,97658.88
2022-11-30T20:09:54.043Z,97658.28
2022-11-30T20:14:55.756Z,97659.22
2022-11-30T20:19:57.435Z,97663.16
2022-11-30T20:24:59.246Z,97660.88
2022-11-30T20:30:00.907Z,97660.88
2022-11-30T20:35:03.151Z,97661.50
2022-11-30T20:40:05.567Z,97668.41
2022-11-30T20:45:07.746Z,97668.00
2022-11-30T20:50:10.197Z,97668.78
2022-11-30T20:55:11.981Z,97678.00
2022-11-30T21:00:14.921Z,97675.94
2022-11-30T21:05:18.913Z,97678.44
2022-11-30T21:10:20.872Z,97668.00
2022-11-30T21:15:22.629Z,97667.78
2022-11-30T21:20:24.392Z,97674.44
2022-11-30T21:25:27.138Z,97675.91
2022-11-30T21:30:29.275Z,97675.84
2022-11-30T21:35:31.435Z,97678.75
2022-11-30T21:40:33.188Z,97673.75
2022-11-30T21:45:34.853Z,97683.38
2022-11-30T21:50:36.522Z,97690.53
2022-11-30T21:55:39.202Z,97687.19
2022-11-30T22:00:41.340Z,97683.88
2022-11-30T22:05:43.052Z,97688.47
2022-11-30T22:10:44.801Z,97688.06
2022-11-30T22:15:46.804Z,97693.06
2022-11-30T22:20:48.716Z,97685.13
2022-11-30T22:25:50.647Z,97690.09
2022-11-30T22:30:52.393Z,97679.25
2022-11-30T22:35:54.229Z,97687.81
2022-11-30T22:41:03.881Z,97682.84
2022-11-30T22:46:11.348Z,97673.47
2022-11-30T22:51:19.126Z,97693.50
2022-11-30T22:56:26.609Z,97682.28
2022-11-30T23:01:41.937Z,97683.94
2022-11-30T23:06:44.540Z,97679.75
2022-11-30T23:11:46.429Z,97678.88
2022-11-30T23:16:48.431Z,97667.88
2022-11-30T23:21:50.239Z,97652.72
2022-11-30T23:26:51.893Z,97650.44
2022-11-30T23:31:53.696Z,97648.06
2022-11-30T23:36:55.416Z,97646.84
2022-11-30T23:41:57.322Z,97643.06
2022-11-30T23:46:59.379Z,97643.41
2022-11-30T23:52:01.277Z,97630.63
2022-11-30T23:57:02.984Z,97633.97
